Antioch, Texas
Current Conditions -  °F | °C
As of 12:55 PM on Wednesday 26 Nov 2014 (Local Time) from KOCH Reporting Station
Clear Clear  
Wind Chill: 19°   Ceiling: Unl
Heat Index: 19°   Visibility: 10mi
Dew Point:   Wind: 14mph
Humidity: 30%   Direction: 250°WSW
Pressure: 30.14"   Gusts: 21mph
Location:  31.8636°N, 94.3909°W
Report Text: KOCH 261855Z AUTO 25012G18KT 10SM CLR 19/01 A3014 RMK AO1
Loading
Personal Weather Stations






























Interactive Weather Map New forecast layout! Learn more

10-Day Weather Forecast

Advertisements
Track Severe Weather on mobile